createdAt,value
2018-08-20T00:00:36.855Z,26.60
2018-08-20T00:05:52.439Z,26.90
2018-08-20T00:08:20.664Z,26.90
2018-08-20T00:10:51.727Z,27.00
2018-08-20T00:13:19.906Z,27.20
2018-08-20T00:15:48.060Z,26.90
2018-08-20T00:18:21.898Z,26.50
2018-08-20T00:20:50.042Z,26.40
2018-08-20T00:23:18.186Z,26.60
2018-08-20T00:25:46.464Z,26.70
2018-08-20T00:28:14.670Z,26.90
2018-08-20T00:30:43.078Z,26.80
2018-08-20T00:33:11.383Z,26.80
2018-08-20T00:35:39.535Z,26.80
2018-08-20T00:38:07.691Z,26.90
2018-08-20T00:40:35.919Z,27.00
2018-08-20T00:43:04.083Z,27.10
2018-08-20T00:45:32.295Z,27.00
2018-08-20T00:48:00.488Z,26.70
2018-08-20T00:50:28.660Z,27.00
2018-08-20T00:52:56.836Z,27.20
2018-08-20T00:55:24.973Z,26.80
2018-08-20T00:57:53.108Z,27.00
2018-08-20T01:00:21.250Z,27.00
2018-08-20T01:02:49.473Z,27.10
2018-08-20T01:05:17.624Z,27.20
2018-08-20T01:07:45.822Z,27.10
2018-08-20T01:10:13.951Z,26.20
2018-08-20T01:12:42.125Z,26.20
2018-08-20T01:15:10.285Z,26.50
2018-08-20T01:17:38.899Z,26.80
2018-08-20T01:20:07.720Z,27.00
2018-08-20T01:22:36.473Z,26.60
2018-08-20T01:25:04.706Z,26.80
2018-08-20T01:27:32.863Z,26.40
2018-08-20T01:30:00.991Z,26.30
2018-08-20T01:32:29.182Z,26.50
2018-08-20T01:35:13.047Z,26.70
2018-08-20T01:37:41.179Z,26.80
2018-08-20T01:40:09.333Z,26.60
2018-08-20T01:42:37.471Z,26.40
2018-08-20T01:45:05.768Z,26.40
2018-08-20T01:47:33.961Z,26.00
2018-08-20T01:50:02.100Z,26.10
2018-08-20T01:52:30.248Z,26.40
2018-08-20T01:54:58.404Z,26.40
2018-08-20T01:57:26.592Z,26.30
2018-08-20T01:59:54.730Z,26.30
2018-08-20T02:02:22.906Z,25.80
2018-08-20T02:04:51.023Z,26.00
2018-08-20T02:07:19.599Z,26.20
2018-08-20T02:09:47.751Z,26.20
2018-08-20T02:12:15.929Z,26.20
2018-08-20T02:14:44.103Z,26.20
2018-08-20T02:17:12.259Z,26.20
2018-08-20T02:19:40.452Z,26.40
2018-08-20T02:22:08.656Z,26.50
2018-08-20T02:24:36.807Z,26.20
2018-08-20T02:27:05.219Z,26.20
2018-08-20T02:29:33.368Z,26.40
2018-08-20T02:32:01.544Z,26.50
2018-08-20T02:34:29.792Z,26.50
2018-08-20T02:36:57.944Z,26.60
2018-08-20T02:39:26.096Z,26.40
2018-08-20T02:41:54.520Z,26.50
2018-08-20T02:44:22.881Z,26.70
2018-08-20T02:46:53.076Z,26.70
2018-08-20T02:49:21.487Z,26.80
2018-08-20T02:51:50.450Z,26.50
2018-08-20T02:54:18.721Z,26.50
2018-08-20T02:56:46.916Z,26.10
2018-08-20T02:59:15.479Z,26.20
2018-08-20T03:01:43.644Z,26.10
2018-08-20T03:04:11.768Z,26.20
2018-08-20T03:06:39.917Z,26.10
2018-08-20T03:09:13.299Z,26.00
2018-08-20T03:11:41.557Z,26.30
2018-08-20T03:14:10.191Z,26.50
2018-08-20T03:16:38.653Z,26.50
2018-08-20T03:19:07.252Z,26.30
2018-08-20T03:21:35.615Z,26.30
2018-08-20T03:24:03.892Z,26.40
2018-08-20T03:26:38.791Z,26.30
2018-08-20T03:29:06.940Z,26.30
2018-08-20T03:31:35.195Z,26.20
2018-08-20T03:34:03.374Z,25.90
2018-08-20T03:36:31.516Z,26.00
2018-08-20T03:38:59.657Z,25.80
2018-08-20T03:41:27.811Z,25.90
2018-08-20T03:43:55.946Z,25.90
2018-08-20T03:46:24.095Z,25.90
2018-08-20T03:48:52.583Z,25.70
2018-08-20T03:51:20.715Z,25.60
2018-08-20T03:53:48.871Z,25.50
2018-08-20T03:56:17.565Z,25.60
2018-08-20T03:58:45.663Z,25.10
2018-08-20T04:01:14.143Z,25.10
2018-08-20T04:03:42.256Z,25.40
2018-08-20T04:06:10.393Z,25.50
2018-08-20T04:08:38.543Z,25.80
2018-08-20T04:11:06.668Z,26.00
2018-08-20T04:13:34.772Z,25.90
2018-08-20T04:16:02.886Z,25.10
2018-08-20T04:18:31.031Z,25.10
2018-08-20T04:20:59.137Z,25.50
2018-08-20T04:23:27.252Z,25.00
2018-08-20T04:25:55.350Z,24.20
2018-08-20T04:28:23.464Z,24.20
2018-08-20T04:30:51.571Z,24.30
2018-08-20T04:33:19.684Z,24.20
2018-08-20T04:35:47.799Z,24.00
2018-08-20T04:38:15.886Z,24.50
2018-08-20T04:40:44.290Z,24.70
2018-08-20T04:43:12.384Z,25.10
2018-08-20T04:45:40.515Z,25.20
2018-08-20T04:48:08.639Z,25.10
2018-08-20T04:50:36.825Z,25.10
2018-08-20T04:53:04.929Z,24.60
2018-08-20T04:55:33.112Z,25.10
2018-08-20T04:58:01.339Z,25.00
2018-08-20T05:00:29.543Z,25.20
2018-08-20T05:02:57.671Z,25.10
2018-08-20T05:05:25.790Z,25.40
2018-08-20T05:07:53.918Z,25.20
2018-08-20T05:10:22.061Z,25.10
2018-08-20T05:12:50.308Z,24.90
2018-08-20T05:15:18.479Z,25.10
2018-08-20T05:17:46.620Z,24.60
2018-08-20T05:20:15.407Z,24.70
2018-08-20T05:22:43.555Z,24.70
2018-08-20T05:25:11.701Z,24.20
2018-08-20T05:27:39.886Z,24.80
2018-08-20T05:30:08.479Z,24.90
2018-08-20T05:32:36.860Z,25.20
2018-08-20T05:35:06.056Z,25.10
2018-08-20T05:37:34.230Z,25.20
2018-08-20T05:40:02.363Z,24.80
2018-08-20T05:42:30.521Z,24.80
2018-08-20T05:44:58.651Z,24.90
2018-08-20T05:47:26.784Z,24.60
2018-08-20T05:49:54.927Z,24.30
2018-08-20T05:52:23.079Z,24.60
2018-08-20T05:54:51.138Z,24.40
2018-08-20T05:57:19.228Z,24.20
2018-08-20T05:59:47.370Z,24.30
2018-08-20T06:02:15.535Z,24.50
2018-08-20T06:04:44.209Z,24.10
2018-08-20T06:07:12.882Z,24.60
2018-08-20T06:09:41.005Z,24.80
2018-08-20T06:12:09.137Z,24.40
2018-08-20T06:14:37.356Z,24.40
2018-08-20T06:17:05.668Z,24.20
2018-08-20T06:19:33.805Z,24.20
2018-08-20T06:22:01.919Z,23.80
2018-08-20T06:24:30.050Z,24.00
2018-08-20T06:26:58.155Z,23.90
2018-08-20T06:29:26.252Z,24.40
2018-08-20T06:31:54.332Z,24.70
2018-08-20T06:34:22.584Z,24.80
2018-08-20T06:36:51.407Z,24.80
2018-08-20T06:39:19.595Z,24.50
2018-08-20T06:41:47.728Z,24.30
2018-08-20T06:44:15.817Z,24.10
2018-08-20T06:46:43.915Z,24.20
2018-08-20T06:49:12.011Z,24.60
2018-08-20T06:51:40.088Z,24.20
2018-08-20T06:54:08.546Z,23.70
2018-08-20T06:56:36.657Z,24.20
2018-08-20T06:59:04.795Z,24.40
2018-08-20T07:01:32.955Z,24.30
2018-08-20T07:04:01.066Z,24.00
2018-08-20T07:06:29.184Z,24.30
2018-08-20T07:08:57.309Z,24.50
2018-08-20T07:11:25.491Z,24.10
2018-08-20T07:13:53.695Z,24.00
2018-08-20T07:16:21.813Z,24.20
2018-08-20T07:18:49.905Z,24.60
2018-08-20T07:21:18.013Z,24.90
2018-08-20T07:23:46.147Z,24.50
2018-08-20T07:26:14.535Z,24.10
2018-08-20T07:28:42.686Z,24.20
2018-08-20T07:31:10.756Z,24.10
2018-08-20T07:33:38.930Z,23.60
2018-08-20T07:36:07.077Z,23.60
2018-08-20T07:38:35.313Z,23.90
2018-08-20T07:41:03.419Z,23.90
2018-08-20T07:43:31.520Z,24.00
2018-08-20T07:45:59.626Z,24.20
2018-08-20T07:48:27.695Z,24.00
2018-08-20T07:50:55.846Z,24.10
2018-08-20T07:53:24.192Z,24.10
2018-08-20T07:55:52.318Z,24.10
2018-08-20T07:58:20.468Z,24.10
2018-08-20T08:00:48.585Z,23.90
2018-08-20T08:03:20.912Z,24.10
2018-08-20T08:05:48.995Z,24.20
2018-08-20T08:08:17.118Z,24.50
2018-08-20T08:10:45.199Z,24.80
2018-08-20T08:13:13.280Z,25.00
2018-08-20T08:15:42.025Z,25.20
2018-08-20T08:18:10.112Z,25.40
2018-08-20T08:20:38.216Z,25.50
2018-08-20T08:23:06.340Z,25.10
2018-08-20T08:25:34.469Z,24.90
2018-08-20T08:28:02.568Z,24.60
2018-08-20T08:30:30.666Z,24.70
2018-08-20T08:32:58.810Z,25.30
2018-08-20T08:35:26.899Z,25.10
2018-08-20T08:37:55.019Z,25.00
2018-08-20T08:40:23.212Z,24.90
2018-08-20T08:42:51.415Z,25.30
2018-08-20T08:45:19.550Z,25.10
2018-08-20T08:47:47.648Z,25.00
2018-08-20T08:50:16.779Z,24.90
2018-08-20T08:52:45.075Z,25.00
2018-08-20T08:55:13.179Z,25.10
2018-08-20T08:57:41.284Z,24.70
2018-08-20T09:00:18.979Z,24.10
2018-08-20T09:02:47.373Z,24.20
2018-08-20T09:05:15.703Z,24.40
2018-08-20T09:07:44.120Z,24.70
2018-08-20T09:10:12.441Z,24.80
2018-08-20T09:12:40.786Z,24.90
2018-08-20T09:15:13.591Z,24.90
2018-08-20T09:17:41.832Z,24.80
2018-08-20T09:20:11.795Z,24.80
2018-08-20T09:22:40.250Z,25.20
2018-08-20T09:25:09.543Z,25.40
2018-08-20T09:27:37.634Z,25.50
2018-08-20T09:30:09.542Z,25.70
2018-08-20T09:32:37.679Z,25.20
2018-08-20T09:35:06.544Z,25.30
2018-08-20T09:37:34.664Z,24.70
2018-08-20T09:40:02.752Z,24.80
2018-08-20T09:42:30.862Z,24.80
2018-08-20T09:44:58.964Z,24.90
2018-08-20T09:47:27.095Z,25.20
2018-08-20T09:49:55.223Z,25.20
2018-08-20T09:52:23.336Z,25.40
2018-08-20T09:54:51.447Z,25.90
2018-08-20T09:57:19.592Z,26.00
2018-08-20T09:59:47.729Z,26.10
2018-08-20T10:02:15.899Z,26.00
2018-08-20T10:04:44.032Z,26.40
2018-08-20T10:07:12.187Z,26.80
2018-08-20T10:09:40.411Z,27.00
2018-08-20T10:12:08.447Z,27.40
2018-08-20T10:14:36.620Z,27.40
2018-08-20T10:17:04.862Z,26.80
2018-08-20T10:19:33.128Z,26.80
2018-08-20T10:22:01.292Z,27.00
2018-08-20T10:24:29.438Z,27.00
2018-08-20T10:26:57.564Z,27.00
2018-08-20T10:29:25.692Z,26.80
2018-08-20T10:31:53.863Z,27.10
2018-08-20T10:34:22.195Z,27.60
2018-08-20T10:36:50.324Z,28.20
2018-08-20T10:39:18.452Z,28.00
2018-08-20T10:41:46.643Z,27.40
2018-08-20T10:44:14.979Z,27.60
2018-08-20T10:46:43.133Z,28.00
2018-08-20T10:49:11.267Z,27.20
2018-08-20T10:51:39.399Z,27.20
2018-08-20T10:54:07.654Z,27.50
2018-08-20T10:56:35.844Z,27.40
2018-08-20T10:59:04.029Z,27.50
2018-08-20T11:01:32.123Z,27.60
2018-08-20T11:04:00.297Z,28.00
2018-08-20T11:06:29.192Z,27.60
2018-08-20T11:08:58.072Z,27.40
2018-08-20T11:11:26.231Z,27.70
2018-08-20T11:13:54.373Z,28.60
2018-08-20T11:16:22.507Z,28.70
2018-08-20T11:18:50.644Z,29.50
2018-08-20T11:21:18.687Z,29.00
2018-08-20T11:23:46.783Z,29.50
2018-08-20T11:26:15.069Z,30.10
2018-08-20T11:28:43.150Z,30.10
2018-08-20T11:31:11.272Z,30.20
2018-08-20T11:33:39.374Z,30.30
2018-08-20T11:36:07.467Z,30.80
2018-08-20T11:38:35.564Z,31.20
2018-08-20T11:41:05.664Z,30.90
2018-08-20T11:43:33.770Z,31.40
2018-08-20T11:46:01.841Z,30.40
2018-08-20T11:48:30.006Z,30.00
2018-08-20T11:50:58.108Z,29.70
2018-08-20T11:53:26.217Z,29.70
2018-08-20T11:55:54.296Z,29.30
2018-08-20T11:58:23.012Z,29.00
2018-08-20T12:00:51.112Z,28.70
2018-08-20T12:03:19.287Z,28.60
2018-08-20T12:05:47.436Z,28.50
2018-08-20T12:08:16.591Z,28.40
2018-08-20T12:10:44.752Z,28.30
2018-08-20T12:13:12.926Z,28.10
2018-08-20T12:15:41.044Z,28.10
2018-08-20T12:18:09.192Z,28.30
2018-08-20T12:20:38.212Z,28.40
2018-08-20T12:23:06.389Z,28.20
2018-08-20T12:25:34.469Z,28.40
2018-08-20T12:28:02.699Z,28.80
2018-08-20T12:30:31.148Z,29.20
2018-08-20T12:32:59.287Z,29.50
2018-08-20T12:35:27.528Z,28.90
2018-08-20T12:37:55.669Z,28.60
2018-08-20T12:40:24.018Z,28.30
2018-08-20T12:42:52.007Z,27.80
2018-08-20T12:45:20.141Z,27.00
2018-08-20T12:47:48.314Z,27.50
2018-08-20T12:50:16.386Z,27.70
2018-08-20T12:52:44.488Z,27.70
2018-08-20T12:55:12.644Z,27.30
2018-08-20T12:57:40.760Z,27.40
2018-08-20T13:00:08.858Z,27.40
2018-08-20T13:02:36.966Z,27.50
2018-08-20T13:05:05.059Z,27.30
2018-08-20T13:07:33.163Z,27.40
2018-08-20T13:10:01.261Z,27.50
2018-08-20T13:12:29.379Z,27.60
2018-08-20T13:14:57.497Z,27.70
2018-08-20T13:17:25.611Z,27.40
2018-08-20T13:19:53.688Z,27.70
2018-08-20T13:22:21.804Z,27.90
2018-08-20T13:24:49.937Z,28.20
2018-08-20T13:27:18.089Z,28.10
2018-08-20T13:29:46.200Z,28.00
2018-08-20T13:32:15.360Z,27.90
2018-08-20T13:34:43.429Z,27.40
2018-08-20T13:37:11.578Z,27.60
2018-08-20T13:39:39.695Z,27.70
2018-08-20T13:42:07.856Z,27.50
2018-08-20T13:44:35.968Z,26.80
2018-08-20T13:47:04.084Z,26.60
2018-08-20T13:49:32.190Z,27.10
2018-08-20T13:52:00.397Z,27.60
2018-08-20T13:54:28.638Z,28.30
2018-08-20T13:56:56.875Z,28.70
2018-08-20T13:59:25.608Z,29.30
2018-08-20T14:01:53.798Z,29.80
2018-08-20T14:04:22.140Z,29.50
2018-08-20T14:06:50.257Z,29.70
2018-08-20T14:09:18.404Z,29.70
2018-08-20T14:11:46.544Z,30.00
2018-08-20T14:14:15.516Z,30.40
2018-08-20T14:16:43.649Z,30.80
2018-08-20T14:19:11.804Z,30.30
2018-08-20T14:21:39.971Z,30.20
2018-08-20T14:24:08.155Z,30.80
2018-08-20T14:26:36.351Z,30.00
2018-08-20T14:29:04.524Z,30.00
2018-08-20T14:31:32.674Z,29.60
2018-08-20T14:34:01.363Z,29.10
2018-08-20T14:36:29.613Z,28.80
2018-08-20T14:38:57.612Z,29.30
2018-08-20T14:41:25.735Z,29.20
2018-08-20T14:43:53.883Z,29.10
2018-08-20T14:46:23.061Z,28.60
2018-08-20T14:48:52.520Z,28.60
2018-08-20T14:51:20.676Z,28.90
2018-08-20T14:53:48.818Z,29.30
2018-08-20T14:56:16.926Z,29.40
2018-08-20T14:58:45.021Z,29.50
2018-08-20T15:01:13.108Z,29.30
2018-08-20T15:03:41.191Z,28.90
2018-08-20T15:06:09.312Z,28.50
2018-08-20T15:08:38.828Z,28.70
2018-08-20T15:11:06.970Z,28.70
2018-08-20T15:13:35.068Z,28.60
2018-08-20T15:16:03.295Z,29.00
2018-08-20T15:18:31.396Z,28.80
2018-08-20T15:20:59.504Z,28.50
2018-08-20T15:23:27.680Z,28.90
2018-08-20T15:25:55.792Z,28.80
2018-08-20T15:28:23.908Z,29.10
2018-08-20T15:30:52.047Z,29.10
2018-08-20T15:33:20.162Z,29.00
2018-08-20T15:35:48.281Z,29.10
2018-08-20T15:38:16.732Z,29.50
2018-08-20T15:40:44.819Z,29.90
2018-08-20T15:43:12.902Z,29.80
2018-08-20T15:45:40.982Z,29.40
2018-08-20T15:48:09.135Z,29.50
2018-08-20T15:50:37.263Z,29.80
2018-08-20T15:53:05.424Z,30.00
2018-08-20T15:55:33.512Z,30.00
2018-08-20T15:58:01.664Z,29.70
2018-08-20T16:00:29.806Z,29.10
2018-08-20T16:02:57.965Z,29.30
2018-08-20T16:05:26.092Z,29.60
2018-08-20T16:07:54.274Z,29.80
2018-08-20T16:10:22.424Z,29.80
2018-08-20T16:12:50.801Z,29.00
2018-08-20T16:15:18.916Z,29.00
2018-08-20T16:17:47.058Z,29.20
2018-08-20T16:20:16.144Z,28.90
2018-08-20T16:22:44.528Z,28.70
2018-08-20T16:25:12.699Z,29.10
2018-08-20T16:27:40.828Z,29.00
2018-08-20T16:30:11.065Z,28.70
2018-08-20T16:32:39.206Z,28.60
2018-08-20T16:35:08.670Z,28.70
2018-08-20T16:37:36.872Z,28.40
2018-08-20T16:40:05.368Z,28.70
2018-08-20T16:42:33.692Z,28.30
2018-08-20T16:45:01.881Z,28.50
2018-08-20T16:47:30.060Z,28.50
2018-08-20T16:49:58.209Z,28.60
2018-08-20T16:52:26.340Z,28.60
2018-08-20T16:54:54.444Z,28.70
2018-08-20T16:57:22.557Z,28.80
2018-08-20T16:59:50.669Z,28.70
2018-08-20T17:02:25.032Z,28.80
2018-08-20T17:04:53.328Z,29.00
2018-08-20T17:07:21.419Z,29.00
2018-08-20T17:09:49.525Z,28.90
2018-08-20T17:12:17.710Z,28.80
2018-08-20T17:14:45.882Z,29.00
2018-08-20T17:17:13.956Z,28.90
2018-08-20T17:19:43.526Z,28.90
2018-08-20T17:22:11.647Z,28.90
2018-08-20T17:24:40.633Z,29.00
2018-08-20T17:27:09.110Z,28.70
2018-08-20T17:29:37.251Z,28.70
2018-08-20T17:32:06.693Z,28.80
2018-08-20T17:34:37.589Z,28.80
2018-08-20T17:37:05.680Z,29.00
2018-08-20T17:39:34.328Z,28.90
2018-08-20T17:42:02.519Z,28.60
2018-08-20T17:44:30.651Z,28.60
2018-08-20T17:46:58.745Z,28.50
2018-08-20T17:49:28.807Z,28.70
2018-08-20T17:51:56.936Z,28.70
2018-08-20T17:54:28.100Z,28.70
2018-08-20T17:56:56.367Z,28.80
2018-08-20T17:59:24.472Z,28.80
2018-08-20T18:01:52.612Z,28.90
2018-08-20T18:04:20.982Z,28.90
2018-08-20T18:06:51.063Z,28.90
2018-08-20T18:09:19.209Z,28.80
2018-08-20T18:11:48.735Z,28.80
2018-08-20T18:14:17.741Z,28.80
2018-08-20T18:16:46.190Z,28.80
2018-08-20T18:19:14.492Z,28.80
2018-08-20T18:21:42.630Z,28.70
2018-08-20T18:24:12.834Z,28.70
2018-08-20T18:26:42.988Z,28.50
2018-08-20T18:29:11.245Z,28.50
2018-08-20T18:31:39.365Z,28.50
2018-08-20T18:34:07.488Z,28.40
2018-08-20T18:36:35.970Z,28.40
2018-08-20T18:39:12.168Z,28.40
2018-08-20T18:42:15.177Z,28.30
2018-08-20T18:44:43.853Z,28.20
2018-08-20T18:47:13.971Z,28.10
2018-08-20T18:49:48.466Z,28.10
2018-08-20T18:52:16.591Z,28.10
2018-08-20T18:54:52.217Z,28.20
2018-08-20T18:57:27.151Z,28.20
2018-08-20T19:00:00.076Z,28.10
2018-08-20T19:02:44.180Z,28.10
2018-08-20T19:05:13.700Z,28.20
2018-08-20T19:07:42.096Z,28.10
2018-08-20T19:10:19.716Z,28.10
2018-08-20T19:12:48.068Z,28.10
2018-08-20T19:15:24.722Z,28.10
2018-08-20T19:17:53.232Z,28.10
2018-08-20T19:20:21.637Z,28.00
2018-08-20T19:22:49.715Z,28.00
2018-08-20T19:25:18.294Z,28.00
2018-08-20T19:27:46.395Z,28.00
2018-08-20T19:30:19.968Z,28.00
2018-08-20T19:32:48.153Z,28.00
2018-08-20T19:35:22.875Z,27.90
2018-08-20T19:37:50.975Z,27.80
2018-08-20T19:40:19.072Z,27.80
2018-08-20T19:42:47.336Z,27.80
2018-08-20T19:45:16.231Z,27.80
2018-08-20T19:47:44.351Z,27.70
2018-08-20T19:50:12.907Z,27.70
2018-08-20T19:52:41.060Z,27.60
2018-08-20T19:55:10.980Z,27.60
2018-08-20T19:57:39.153Z,27.50
2018-08-20T20:00:10.080Z,27.50
2018-08-20T20:02:40.377Z,27.50
2018-08-20T20:05:08.597Z,27.50
2018-08-20T20:07:37.483Z,27.50
2018-08-20T20:10:09.456Z,27.50
2018-08-20T20:12:42.639Z,27.40
2018-08-20T20:15:10.808Z,27.40
2018-08-20T20:17:39.531Z,27.30
2018-08-20T20:20:07.664Z,27.30
2018-08-20T20:22:36.072Z,27.30
2018-08-20T20:25:04.544Z,27.30
2018-08-20T20:27:32.666Z,27.30
2018-08-20T20:30:00.893Z,27.30
2018-08-20T20:32:29.219Z,27.20
2018-08-20T20:34:57.412Z,27.20
2018-08-20T20:37:25.544Z,27.20
2018-08-20T20:39:58.792Z,27.20
2018-08-20T20:42:27.295Z,27.20
2018-08-20T20:44:55.967Z,27.10
2018-08-20T20:47:24.152Z,27.10
2018-08-20T20:49:52.342Z,27.10
2018-08-20T20:52:20.443Z,27.10
2018-08-20T20:54:48.652Z,27.00
2018-08-20T20:57:16.816Z,27.10
2018-08-20T20:59:44.961Z,27.00
2018-08-20T21:02:13.077Z,27.00
2018-08-20T21:04:41.231Z,27.00
2018-08-20T21:07:09.416Z,27.00
2018-08-20T21:09:43.772Z,27.00
2018-08-20T21:12:11.994Z,27.00
2018-08-20T21:14:40.136Z,27.00
2018-08-20T21:17:08.281Z,26.90
2018-08-20T21:19:36.491Z,26.90
2018-08-20T21:22:06.298Z,26.90
2018-08-20T21:24:34.437Z,26.90
2018-08-20T21:27:02.559Z,26.90
2018-08-20T21:29:31.411Z,26.90
2018-08-20T21:31:59.612Z,26.80
2018-08-20T21:34:30.532Z,26.80
2018-08-20T21:36:58.691Z,26.80
2018-08-20T21:39:26.809Z,26.80
2018-08-20T21:41:54.968Z,26.80
2018-08-20T21:44:23.144Z,26.80
2018-08-20T21:46:51.307Z,26.70
2018-08-20T21:49:19.392Z,26.70
2018-08-20T21:51:52.824Z,26.70
2018-08-20T21:54:26.443Z,26.70
2018-08-20T21:56:55.518Z,26.60
2018-08-20T21:59:23.653Z,26.60
2018-08-20T22:01:51.816Z,26.50
2018-08-20T22:04:21.402Z,26.50
2018-08-20T22:06:50.112Z,26.40
2018-08-20T22:09:18.315Z,26.40
2018-08-20T22:11:46.445Z,26.30
2018-08-20T22:14:14.589Z,26.20
2018-08-20T22:16:42.682Z,26.20
2018-08-20T22:19:10.783Z,26.10
2018-08-20T22:21:38.897Z,26.10
2018-08-20T22:24:07.024Z,26.00
2018-08-20T22:26:35.120Z,26.00
2018-08-20T22:29:03.260Z,25.80
2018-08-20T22:31:31.367Z,25.80
2018-08-20T22:34:05.399Z,25.70
2018-08-20T22:36:33.743Z,25.60
2018-08-20T22:39:03.488Z,25.50
2018-08-20T22:41:31.952Z,25.40
2018-08-20T22:44:00.058Z,25.30
2018-08-20T22:46:28.203Z,25.30
2018-08-20T22:48:58.475Z,25.20
2018-08-20T22:51:29.553Z,25.00
2018-08-20T22:53:59.162Z,25.00
2018-08-20T22:56:31.836Z,24.90
2018-08-20T22:59:09.023Z,24.90
2018-08-20T23:01:37.134Z,24.80
2018-08-20T23:04:05.340Z,24.70
2018-08-20T23:06:33.447Z,24.70
2018-08-20T23:09:34.728Z,24.70
2018-08-20T23:12:02.877Z,24.60
2018-08-20T23:14:32.647Z,24.40
2018-08-20T23:17:00.775Z,24.40
2018-08-20T23:19:29.785Z,24.30
2018-08-20T23:21:57.892Z,24.30
2018-08-20T23:24:26.161Z,24.10
2018-08-20T23:26:54.257Z,24.00
2018-08-20T23:29:22.782Z,23.90
2018-08-20T23:31:50.947Z,23.90
2018-08-20T23:34:19.180Z,23.80
2018-08-20T23:36:47.379Z,23.90
2018-08-20T23:39:17.455Z,24.00
2018-08-20T23:41:45.556Z,24.10
2018-08-20T23:44:16.162Z,24.10
2018-08-20T23:46:45.908Z,24.10
2018-08-20T23:49:14.041Z,24.10
2018-08-20T23:51:42.145Z,24.10
2018-08-20T23:54:11.150Z,23.80
2018-08-20T23:56:39.368Z,23.80
2018-08-20T23:59:07.625Z,23.90
